sensor_id;sensor_type;location;lat;lon;timestamp;P1;durP1;ratioP1;P2;durP2;ratioP2
37771;SDS011;23610;59.380;24.642;2022-08-23T00:00:12;8.40;;;3.70;;
37771;SDS011;23610;59.380;24.642;2022-08-23T00:05:18;11.85;;;4.85;;
37771;SDS011;23610;59.380;24.642;2022-08-23T00:10:21;10.02;;;4.18;;
37771;SDS011;23610;59.380;24.642;2022-08-23T00:15:24;5.93;;;3.92;;
37771;SDS011;23610;59.380;24.642;2022-08-23T00:20:26;10.23;;;4.30;;
37771;SDS011;23610;59.380;24.642;2022-08-23T00:25:29;6.75;;;4.55;;
37771;SDS011;23610;59.380;24.642;2022-08-23T00:30:32;6.35;;;4.50;;
37771;SDS011;23610;59.380;24.642;2022-08-23T00:35:35;6.97;;;4.43;;
37771;SDS011;23610;59.380;24.642;2022-08-23T00:40:40;6.72;;;4.30;;
37771;SDS011;23610;59.380;24.642;2022-08-23T00:46:38;6.10;;;3.38;;
37771;SDS011;23610;59.380;24.642;2022-08-23T00:51:48;5.38;;;3.63;;
37771;SDS011;23610;59.380;24.642;2022-08-23T00:57:11;3.95;;;3.15;;
37771;SDS011;23610;59.380;24.642;2022-08-23T01:02:16;5.05;;;4.32;;
37771;SDS011;23610;59.380;24.642;2022-08-23T01:13:21;5.32;;;3.22;;
37771;SDS011;23610;59.380;24.642;2022-08-23T01:35:59;6.75;;;3.25;;
37771;SDS011;23610;59.380;24.642;2022-08-23T01:41:18;4.35;;;3.60;;
37771;SDS011;23610;59.380;24.642;2022-08-23T01:46:21;7.00;;;3.72;;
37771;SDS011;23610;59.380;24.642;2022-08-23T01:52:14;7.13;;;4.35;;
37771;SDS011;23610;59.380;24.642;2022-08-23T01:57:17;3.65;;;3.35;;
37771;SDS011;23610;59.380;24.642;2022-08-23T02:02:20;4.78;;;3.42;;
37771;SDS011;23610;59.380;24.642;2022-08-23T02:07:26;6.53;;;3.95;;
37771;SDS011;23610;59.380;24.642;2022-08-23T02:12:34;6.57;;;3.80;;
37771;SDS011;23610;59.380;24.642;2022-08-23T02:17:50;5.35;;;3.80;;
37771;SDS011;23610;59.380;24.642;2022-08-23T02:22:55;7.13;;;3.90;;
37771;SDS011;23610;59.380;24.642;2022-08-23T02:27:58;6.43;;;3.78;;
37771;SDS011;23610;59.380;24.642;2022-08-23T02:33:00;8.27;;;4.00;;
37771;SDS011;23610;59.380;24.642;2022-08-23T02:43:23;4.95;;;3.42;;
37771;SDS011;23610;59.380;24.642;2022-08-23T02:48:52;6.25;;;3.80;;
37771;SDS011;23610;59.380;24.642;2022-08-23T02:53:57;5.88;;;4.15;;
37771;SDS011;23610;59.380;24.642;2022-08-23T02:59:01;8.40;;;4.80;;
37771;SDS011;23610;59.380;24.642;2022-08-23T03:04:06;5.57;;;4.13;;
37771;SDS011;23610;59.380;24.642;2022-08-23T03:09:21;5.10;;;3.38;;
37771;SDS011;23610;59.380;24.642;2022-08-23T03:14:23;7.43;;;4.60;;
37771;SDS011;23610;59.380;24.642;2022-08-23T03:19:50;5.50;;;3.92;;
37771;SDS011;23610;59.380;24.642;2022-08-23T03:24:53;5.55;;;4.22;;
37771;SDS011;23610;59.380;24.642;2022-08-23T03:30:04;7.65;;;3.90;;
37771;SDS011;23610;59.380;24.642;2022-08-23T03:35:22;6.07;;;4.15;;
37771;SDS011;23610;59.380;24.642;2022-08-23T03:40:25;8.48;;;3.70;;
37771;SDS011;23610;59.380;24.642;2022-08-23T03:45:27;6.45;;;3.92;;
37771;SDS011;23610;59.380;24.642;2022-08-23T03:50:53;8.93;;;3.42;;
37771;SDS011;23610;59.380;24.642;2022-08-23T03:55:57;7.97;;;4.07;;
37771;SDS011;23610;59.380;24.642;2022-08-23T04:00:59;9.93;;;3.70;;
37771;SDS011;23610;59.380;24.642;2022-08-23T04:06:02;6.15;;;4.10;;
37771;SDS011;23610;59.380;24.642;2022-08-23T04:11:05;8.15;;;4.20;;
37771;SDS011;23610;59.380;24.642;2022-08-23T04:16:23;7.50;;;3.93;;
37771;SDS011;23610;59.380;24.642;2022-08-23T04:21:26;4.70;;;3.55;;
37771;SDS011;23610;59.380;24.642;2022-08-23T04:26:28;4.63;;;3.38;;
37771;SDS011;23610;59.380;24.642;2022-08-23T04:31:56;5.95;;;3.47;;
37771;SDS011;23610;59.380;24.642;2022-08-23T04:36:58;5.03;;;3.55;;
37771;SDS011;23610;59.380;24.642;2022-08-23T04:42:03;10.90;;;3.72;;
37771;SDS011;23610;59.380;24.642;2022-08-23T04:47:27;9.15;;;4.32;;
37771;SDS011;23610;59.380;24.642;2022-08-23T04:52:46;5.22;;;3.30;;
37771;SDS011;23610;59.380;24.642;2022-08-23T04:57:56;8.15;;;3.22;;
37771;SDS011;23610;59.380;24.642;2022-08-23T05:03:04;5.40;;;2.65;;
37771;SDS011;23610;59.380;24.642;2022-08-23T05:08:07;5.45;;;3.03;;
37771;SDS011;23610;59.380;24.642;2022-08-23T05:13:10;5.30;;;2.40;;
37771;SDS011;23610;59.380;24.642;2022-08-23T05:19:03;3.83;;;2.55;;
37771;SDS011;23610;59.380;24.642;2022-08-23T05:24:26;4.15;;;2.00;;
37771;SDS011;23610;59.380;24.642;2022-08-23T05:29:29;4.85;;;1.60;;
37771;SDS011;23610;59.380;24.642;2022-08-23T05:35:41;4.50;;;2.28;;
37771;SDS011;23610;59.380;24.642;2022-08-23T05:40:58;3.80;;;2.35;;
37771;SDS011;23610;59.380;24.642;2022-08-23T05:46:07;3.65;;;2.15;;
37771;SDS011;23610;59.380;24.642;2022-08-23T05:51:59;2.90;;;1.50;;
37771;SDS011;23610;59.380;24.642;2022-08-23T05:57:06;5.15;;;1.60;;
37771;SDS011;23610;59.380;24.642;2022-08-23T06:02:10;3.95;;;2.08;;
37771;SDS011;23610;59.380;24.642;2022-08-23T06:07:29;5.65;;;1.92;;
37771;SDS011;23610;59.380;24.642;2022-08-23T06:12:31;11.07;;;2.30;;
37771;SDS011;23610;59.380;24.642;2022-08-23T06:18:02;2.85;;;1.40;;
37771;SDS011;23610;59.380;24.642;2022-08-23T06:23:06;4.68;;;1.67;;
37771;SDS011;23610;59.380;24.642;2022-08-23T06:28:32;6.55;;;1.67;;
37771;SDS011;23610;59.380;24.642;2022-08-23T06:34:03;4.13;;;1.92;;
37771;SDS011;23610;59.380;24.642;2022-08-23T06:39:32;2.53;;;1.73;;
37771;SDS011;23610;59.380;24.642;2022-08-23T06:45:33;1.92;;;1.15;;
37771;SDS011;23610;59.380;24.642;2022-08-23T06:57:32;2.35;;;1.35;;
37771;SDS011;23610;59.380;24.642;2022-08-23T07:03:02;3.08;;;1.55;;
37771;SDS011;23610;59.380;24.642;2022-08-23T07:08:33;3.20;;;1.35;;
37771;SDS011;23610;59.380;24.642;2022-08-23T07:14:35;3.30;;;1.50;;
37771;SDS011;23610;59.380;24.642;2022-08-23T07:20:34;2.10;;;1.90;;
37771;SDS011;23610;59.380;24.642;2022-08-23T07:26:54;8.23;;;1.83;;
37771;SDS011;23610;59.380;24.642;2022-08-23T07:32:41;1.97;;;1.40;;
37771;SDS011;23610;59.380;24.642;2022-08-23T07:38:05;7.93;;;1.95;;
37771;SDS011;23610;59.380;24.642;2022-08-23T07:43:09;2.45;;;1.23;;
37771;SDS011;23610;59.380;24.642;2022-08-23T07:48:13;1.48;;;0.90;;
37771;SDS011;23610;59.380;24.642;2022-08-23T07:54:12;1.60;;;0.98;;
37771;SDS011;23610;59.380;24.642;2022-08-23T07:59:35;3.90;;;1.00;;
37771;SDS011;23610;59.380;24.642;2022-08-23T08:05:38;3.40;;;1.48;;
37771;SDS011;23610;59.380;24.642;2022-08-23T08:10:41;1.77;;;0.98;;
37771;SDS011;23610;59.380;24.642;2022-08-23T08:15:44;8.00;;;1.17;;
37771;SDS011;23610;59.380;24.642;2022-08-23T08:20:49;1.80;;;0.85;;
37771;SDS011;23610;59.380;24.642;2022-08-23T08:26:10;5.88;;;1.38;;
37771;SDS011;23610;59.380;24.642;2022-08-23T08:37:14;3.83;;;1.10;;
37771;SDS011;23610;59.380;24.642;2022-08-23T08:48:18;2.03;;;1.05;;
37771;SDS011;23610;59.380;24.642;2022-08-23T08:54:11;1.58;;;1.23;;
37771;SDS011;23610;59.380;24.642;2022-08-23T09:04:50;2.90;;;1.40;;
37771;SDS011;23610;59.380;24.642;2022-08-23T09:21:44;5.18;;;1.50;;
37771;SDS011;23610;59.380;24.642;2022-08-23T09:26:58;3.83;;;1.83;;
37771;SDS011;23610;59.380;24.642;2022-08-23T09:43:18;4.28;;;1.50;;
37771;SDS011;23610;59.380;24.642;2022-08-23T09:48:44;3.63;;;1.65;;
37771;SDS011;23610;59.380;24.642;2022-08-23T09:59:48;9.37;;;2.10;;
37771;SDS011;23610;59.380;24.642;2022-08-23T10:10:52;6.20;;;2.25;;
37771;SDS011;23610;59.380;24.642;2022-08-23T10:22:50;4.47;;;2.30;;
37771;SDS011;23610;59.380;24.642;2022-08-23T11:00:49;9.05;;;2.53;;
37771;SDS011;23610;59.380;24.642;2022-08-23T11:13:22;7.38;;;2.08;;
37771;SDS011;23610;59.380;24.642;2022-08-23T11:18:52;3.92;;;2.28;;
37771;SDS011;23610;59.380;24.642;2022-08-23T11:42:51;7.05;;;2.10;;
37771;SDS011;23610;59.380;24.642;2022-08-23T11:48:34;5.10;;;2.13;;
37771;SDS011;23610;59.380;24.642;2022-08-23T12:05:22;5.25;;;1.80;;
37771;SDS011;23610;59.380;24.642;2022-08-23T12:11:05;4.38;;;1.70;;
37771;SDS011;23610;59.380;24.642;2022-08-23T12:24:00;2.95;;;1.60;;
37771;SDS011;23610;59.380;24.642;2022-08-23T12:37:58;5.88;;;2.08;;
37771;SDS011;23610;59.380;24.642;2022-08-23T12:44:06;9.35;;;1.92;;
37771;SDS011;23610;59.380;24.642;2022-08-23T12:56:08;6.30;;;1.90;;
37771;SDS011;23610;59.380;24.642;2022-08-23T13:02:30;4.38;;;2.03;;
37771;SDS011;23610;59.380;24.642;2022-08-23T13:07:34;7.47;;;2.03;;
37771;SDS011;23610;59.380;24.642;2022-08-23T13:12:38;11.23;;;3.00;;
37771;SDS011;23610;59.380;24.642;2022-08-23T13:17:43;11.95;;;2.20;;
37771;SDS011;23610;59.380;24.642;2022-08-23T13:23:06;7.00;;;1.90;;
37771;SDS011;23610;59.380;24.642;2022-08-23T13:33:27;4.55;;;2.22;;
37771;SDS011;23610;59.380;24.642;2022-08-23T13:38:31;8.70;;;2.63;;
37771;SDS011;23610;59.380;24.642;2022-08-23T13:54:18;4.18;;;1.92;;
37771;SDS011;23610;59.380;24.642;2022-08-23T13:59:24;6.28;;;3.00;;
37771;SDS011;23610;59.380;24.642;2022-08-23T14:04:32;3.83;;;1.98;;
37771;SDS011;23610;59.380;24.642;2022-08-23T14:09:35;8.48;;;2.13;;
37771;SDS011;23610;59.380;24.642;2022-08-23T14:14:39;3.90;;;1.83;;
37771;SDS011;23610;59.380;24.642;2022-08-23T14:19:43;7.30;;;2.00;;
37771;SDS011;23610;59.380;24.642;2022-08-23T14:25:07;3.72;;;2.00;;
37771;SDS011;23610;59.380;24.642;2022-08-23T14:30:15;9.23;;;2.60;;
37771;SDS011;23610;59.380;24.642;2022-08-23T14:35:33;3.65;;;1.95;;
37771;SDS011;23610;59.380;24.642;2022-08-23T14:40:36;5.07;;;1.88;;
37771;SDS011;23610;59.380;24.642;2022-08-23T14:45:39;4.57;;;2.35;;
37771;SDS011;23610;59.380;24.642;2022-08-23T14:50:42;10.05;;;3.10;;
37771;SDS011;23610;59.380;24.642;2022-08-23T14:55:45;5.67;;;2.07;;
37771;SDS011;23610;59.380;24.642;2022-08-23T15:01:07;5.82;;;2.58;;
37771;SDS011;23610;59.380;24.642;2022-08-23T15:11:15;6.65;;;2.17;;
37771;SDS011;23610;59.380;24.642;2022-08-23T15:16:37;2.92;;;2.15;;
37771;SDS011;23610;59.380;24.642;2022-08-23T15:21:41;4.57;;;2.20;;
37771;SDS011;23610;59.380;24.642;2022-08-23T15:26:43;12.95;;;3.88;;
37771;SDS011;23610;59.380;24.642;2022-08-23T15:31:46;7.85;;;2.70;;
37771;SDS011;23610;59.380;24.642;2022-08-23T15:36:50;3.23;;;2.47;;
37771;SDS011;23610;59.380;24.642;2022-08-23T15:41:52;7.03;;;3.30;;
37771;SDS011;23610;59.380;24.642;2022-08-23T15:46:55;6.70;;;3.65;;
37771;SDS011;23610;59.380;24.642;2022-08-23T15:51:58;6.93;;;3.15;;
37771;SDS011;23610;59.380;24.642;2022-08-23T15:57:01;14.65;;;3.80;;
37771;SDS011;23610;59.380;24.642;2022-08-23T16:02:03;4.97;;;2.38;;
37771;SDS011;23610;59.380;24.642;2022-08-23T16:07:07;7.75;;;3.05;;
37771;SDS011;23610;59.380;24.642;2022-08-23T16:12:13;8.45;;;3.45;;
37771;SDS011;23610;59.380;24.642;2022-08-23T16:17:16;5.43;;;3.08;;
37771;SDS011;23610;59.380;24.642;2022-08-23T16:22:20;4.15;;;2.50;;
37771;SDS011;23610;59.380;24.642;2022-08-23T16:27:23;7.25;;;3.00;;
37771;SDS011;23610;59.380;24.642;2022-08-23T16:32:26;3.90;;;3.15;;
37771;SDS011;23610;59.380;24.642;2022-08-23T16:37:28;10.07;;;3.65;;
37771;SDS011;23610;59.380;24.642;2022-08-23T16:42:31;7.50;;;3.22;;
37771;SDS011;23610;59.380;24.642;2022-08-23T16:47:38;5.93;;;2.97;;
37771;SDS011;23610;59.380;24.642;2022-08-23T16:52:45;5.97;;;3.70;;
37771;SDS011;23610;59.380;24.642;2022-08-23T16:57:47;6.18;;;3.10;;
37771;SDS011;23610;59.380;24.642;2022-08-23T17:02:50;18.52;;;3.85;;
37771;SDS011;23610;59.380;24.642;2022-08-23T17:07:53;14.60;;;4.13;;
37771;SDS011;23610;59.380;24.642;2022-08-23T17:12:57;15.07;;;4.50;;
37771;SDS011;23610;59.380;24.642;2022-08-23T17:18:00;13.23;;;3.80;;
37771;SDS011;23610;59.380;24.642;2022-08-23T17:23:03;18.03;;;3.80;;
37771;SDS011;23610;59.380;24.642;2022-08-23T17:28:07;7.35;;;3.42;;
37771;SDS011;23610;59.380;24.642;2022-08-23T17:33:10;11.63;;;4.50;;
37771;SDS011;23610;59.380;24.642;2022-08-23T17:38:13;16.58;;;4.25;;
37771;SDS011;23610;59.380;24.642;2022-08-23T17:43:15;6.45;;;2.78;;
37771;SDS011;23610;59.380;24.642;2022-08-23T17:48:19;13.05;;;3.92;;
37771;SDS011;23610;59.380;24.642;2022-08-23T17:53:22;8.03;;;4.03;;
37771;SDS011;23610;59.380;24.642;2022-08-23T17:58:24;9.50;;;3.55;;
37771;SDS011;23610;59.380;24.642;2022-08-23T18:03:27;7.65;;;4.10;;
37771;SDS011;23610;59.380;24.642;2022-08-23T18:08:31;10.10;;;3.55;;
37771;SDS011;23610;59.380;24.642;2022-08-23T18:13:35;11.65;;;4.15;;
37771;SDS011;23610;59.380;24.642;2022-08-23T18:18:37;7.28;;;4.47;;
37771;SDS011;23610;59.380;24.642;2022-08-23T18:23:41;10.80;;;4.30;;
37771;SDS011;23610;59.380;24.642;2022-08-23T18:28:44;8.70;;;3.63;;
37771;SDS011;23610;59.380;24.642;2022-08-23T18:33:46;9.23;;;4.20;;
37771;SDS011;23610;59.380;24.642;2022-08-23T18:38:49;13.00;;;3.40;;
37771;SDS011;23610;59.380;24.642;2022-08-23T18:43:52;10.15;;;3.83;;
37771;SDS011;23610;59.380;24.642;2022-08-23T18:48:55;6.30;;;3.67;;
37771;SDS011;23610;59.380;24.642;2022-08-23T18:53:57;6.90;;;4.13;;
37771;SDS011;23610;59.380;24.642;2022-08-23T18:59:01;12.35;;;3.83;;
37771;SDS011;23610;59.380;24.642;2022-08-23T19:04:05;6.83;;;4.43;;
37771;SDS011;23610;59.380;24.642;2022-08-23T19:09:10;8.40;;;4.35;;
37771;SDS011;23610;59.380;24.642;2022-08-23T19:14:13;8.90;;;3.45;;
37771;SDS011;23610;59.380;24.642;2022-08-23T19:19:16;9.77;;;3.88;;
37771;SDS011;23610;59.380;24.642;2022-08-23T19:24:19;7.53;;;3.90;;
37771;SDS011;23610;59.380;24.642;2022-08-23T19:29:21;10.88;;;4.43;;
37771;SDS011;23610;59.380;24.642;2022-08-23T19:34:24;9.48;;;3.83;;
37771;SDS011;23610;59.380;24.642;2022-08-23T19:39:28;16.33;;;4.00;;
37771;SDS011;23610;59.380;24.642;2022-08-23T19:44:31;10.13;;;4.57;;
37771;SDS011;23610;59.380;24.642;2022-08-23T19:49:35;5.43;;;4.18;;
37771;SDS011;23610;59.380;24.642;2022-08-23T19:54:37;9.27;;;4.80;;
37771;SDS011;23610;59.380;24.642;2022-08-23T19:59:41;9.17;;;4.03;;
37771;SDS011;23610;59.380;24.642;2022-08-23T20:04:44;14.02;;;4.45;;
37771;SDS011;23610;59.380;24.642;2022-08-23T20:09:47;10.00;;;3.67;;
37771;SDS011;23610;59.380;24.642;2022-08-23T20:14:50;5.22;;;4.35;;
37771;SDS011;23610;59.380;24.642;2022-08-23T20:19:52;9.85;;;4.28;;
37771;SDS011;23610;59.380;24.642;2022-08-23T20:24:55;8.27;;;4.85;;
37771;SDS011;23610;59.380;24.642;2022-08-23T20:29:58;12.63;;;4.82;;
37771;SDS011;23610;59.380;24.642;2022-08-23T20:35:03;11.03;;;5.07;;
37771;SDS011;23610;59.380;24.642;2022-08-23T20:40:08;19.80;;;4.88;;
37771;SDS011;23610;59.380;24.642;2022-08-23T20:45:11;13.93;;;4.63;;
37771;SDS011;23610;59.380;24.642;2022-08-23T20:50:14;9.50;;;4.80;;
37771;SDS011;23610;59.380;24.642;2022-08-23T20:55:17;9.95;;;4.60;;
37771;SDS011;23610;59.380;24.642;2022-08-23T21:00:19;12.75;;;5.60;;
37771;SDS011;23610;59.380;24.642;2022-08-23T21:05:22;16.13;;;4.95;;
37771;SDS011;23610;59.380;24.642;2022-08-23T21:10:28;16.05;;;4.47;;
37771;SDS011;23610;59.380;24.642;2022-08-23T21:15:31;7.32;;;4.15;;
37771;SDS011;23610;59.380;24.642;2022-08-23T21:20:34;7.53;;;5.15;;
37771;SDS011;23610;59.380;24.642;2022-08-23T21:25:36;11.98;;;5.45;;
37771;SDS011;23610;59.380;24.642;2022-08-23T21:30:39;12.52;;;5.07;;
37771;SDS011;23610;59.380;24.642;2022-08-23T21:35:42;13.25;;;5.13;;
37771;SDS011;23610;59.380;24.642;2022-08-23T21:40:45;17.15;;;5.28;;
37771;SDS011;23610;59.380;24.642;2022-08-23T21:45:54;10.63;;;5.10;;
37771;SDS011;23610;59.380;24.642;2022-08-23T21:50:58;15.23;;;5.60;;
37771;SDS011;23610;59.380;24.642;2022-08-23T21:56:01;10.50;;;5.10;;
37771;SDS011;23610;59.380;24.642;2022-08-23T22:01:04;7.32;;;5.47;;
37771;SDS011;23610;59.380;24.642;2022-08-23T22:06:13;12.40;;;6.00;;
37771;SDS011;23610;59.380;24.642;2022-08-23T22:11:17;10.32;;;4.72;;
37771;SDS011;23610;59.380;24.642;2022-08-23T22:16:20;11.63;;;5.88;;
37771;SDS011;23610;59.380;24.642;2022-08-23T22:21:23;9.50;;;4.90;;
37771;SDS011;23610;59.380;24.642;2022-08-23T22:26:26;8.73;;;5.13;;
37771;SDS011;23610;59.380;24.642;2022-08-23T22:31:31;12.27;;;6.15;;
37771;SDS011;23610;59.380;24.642;2022-08-23T22:36:35;14.40;;;6.57;;
37771;SDS011;23610;59.380;24.642;2022-08-23T22:41:38;14.57;;;5.53;;
37771;SDS011;23610;59.380;24.642;2022-08-23T22:46:41;13.82;;;5.22;;
37771;SDS011;23610;59.380;24.642;2022-08-23T22:51:44;12.90;;;5.80;;
37771;SDS011;23610;59.380;24.642;2022-08-23T22:56:50;9.63;;;4.75;;
37771;SDS011;23610;59.380;24.642;2022-08-23T23:01:55;13.93;;;5.82;;
37771;SDS011;23610;59.380;24.642;2022-08-23T23:06:59;11.23;;;6.65;;
37771;SDS011;23610;59.380;24.642;2022-08-23T23:12:03;8.20;;;6.22;;
37771;SDS011;23610;59.380;24.642;2022-08-23T23:17:06;12.18;;;5.43;;
37771;SDS011;23610;59.380;24.642;2022-08-23T23:22:09;19.33;;;6.20;;
37771;SDS011;23610;59.380;24.642;2022-08-23T23:27:12;10.77;;;4.90;;
37771;SDS011;23610;59.380;24.642;2022-08-23T23:32:14;8.38;;;5.35;;
37771;SDS011;23610;59.380;24.642;2022-08-23T23:37:18;9.57;;;5.07;;
37771;SDS011;23610;59.380;24.642;2022-08-23T23:42:21;6.65;;;4.97;;
37771;SDS011;23610;59.380;24.642;2022-08-23T23:47:23;8.88;;;5.97;;
37771;SDS011;23610;59.380;24.642;2022-08-23T23:52:26;9.55;;;5.32;;
37771;SDS011;23610;59.380;24.642;2022-08-23T23:57:29;9.23;;;4.90;;
